Time;durP1;ratioP1;P1;durP2;ratioP2;P2;SDS_P1;SDS_P2;PMS_P1;PMS_P2;Temp;Humidity;BMP_temperature;BMP_pressure;BME280_temperature;BME280_humidity;BME280_pressure;Samples;Min_cycle;Max_cycle;Signal;HPM_P1;HPM_P2
2022/06/28 00:02:20;;;;;;;1.55;1.42;;;;;;;;;;7391574;19;20007;-75
2022/06/28 00:04:45;;;;;;;2.03;1.77;;;;;;;;;;7390449;19;20042;-76
2022/06/28 00:07:14;;;;;;;2.10;1.77;;;;;;;;;;7387263;19;20027;-75
2022/06/28 00:09:39;;;;;;;2.35;1.98;;;;;;;;;;7389300;19;20006;-76
2022/06/28 00:12:05;;;;;;;3.08;1.80;;;;;;;;;;7390133;19;20003;-76
2022/06/28 00:17:14;;;;;;;2.65;2.05;;;;;;;;;;7390658;19;20517;-76
2022/06/28 00:19:40;;;;;;;1.83;1.50;;;;;;;;;;7388127;19;19994;-76
2022/06/28 00:22:05;;;;;;;2.75;1.67;;;;;;;;;;7390472;19;20006;-76
2022/06/28 00:24:30;;;;;;;2.92;1.83;;;;;;;;;;7385524;19;20007;-76
2022/06/28 00:26:56;;;;;;;3.83;1.80;;;;;;;;;;7390529;19;20018;-76
2022/06/28 00:29:21;;;;;;;1.80;1.67;;;;;;;;;;7391073;19;20002;-76
2022/06/28 00:31:47;;;;;;;2.13;1.70;;;;;;;;;;7389076;19;20469;-76
2022/06/28 00:34:13;;;;;;;2.13;1.73;;;;;;;;;;7390482;19;20018;-76
2022/06/28 00:36:38;;;;;;;2.20;1.67;;;;;;;;;;7390288;19;20030;-76
2022/06/28 00:39:04;;;;;;;2.15;1.67;;;;;;;;;;7390685;19;20015;-76
2022/06/28 00:41:29;;;;;;;6.28;2.15;;;;;;;;;;7390057;19;20502;-75
2022/06/28 00:43:56;;;;;;;3.35;2.00;;;;;;;;;;7389597;19;20435;-75
2022/06/28 00:46:21;;;;;;;1.92;1.65;;;;;;;;;;7391711;19;20010;-76
2022/06/28 00:48:47;;;;;;;5.68;2.03;;;;;;;;;;7389100;19;20039;-76
2022/06/28 00:51:12;;;;;;;1.92;1.48;;;;;;;;;;7390602;19;20374;-76
2022/06/28 00:53:38;;;;;;;1.85;1.63;;;;;;;;;;7390752;19;20074;-75
2022/06/28 00:56:04;;;;;;;2.58;1.63;;;;;;;;;;7389232;19;20010;-76
2022/06/28 00:58:29;;;;;;;3.22;1.80;;;;;;;;;;7388974;19;20010;-75
2022/06/28 01:00:54;;;;;;;4.63;2.00;;;;;;;;;;7389826;19;20027;-75
2022/06/28 01:03:22;;;;;;;6.18;1.90;;;;;;;;;;7389701;19;20014;-76
2022/06/28 01:05:49;;;;;;;4.68;1.75;;;;;;;;;;7389140;19;20044;-75
2022/06/28 01:08:15;;;;;;;2.50;2.08;;;;;;;;;;7387526;19;20014;-75
2022/06/28 01:10:41;;;;;;;2.42;1.95;;;;;;;;;;7388230;19;20014;-75
2022/06/28 01:13:08;;;;;;;4.35;2.47;;;;;;;;;;7386913;19;20018;-76
2022/06/28 01:15:34;;;;;;;2.67;2.20;;;;;;;;;;7388987;19;19995;-76
2022/06/28 01:18:01;;;;;;;2.70;1.92;;;;;;;;;;7387633;19;20378;-76
2022/06/28 01:20:27;;;;;;;4.95;2.20;;;;;;;;;;7389035;19;20014;-76
2022/06/28 01:22:53;;;;;;;4.78;2.05;;;;;;;;;;7387643;19;20006;-76
2022/06/28 01:25:19;;;;;;;3.83;2.20;;;;;;;;;;7389533;19;20002;-76
2022/06/28 01:27:45;;;;;;;2.38;2.03;;;;;;;;;;7386044;19;20027;-76
2022/06/28 01:30:11;;;;;;;1.77;1.65;;;;;;;;;;7389724;19;20015;-76
2022/06/28 01:32:37;;;;;;;3.70;2.10;;;;;;;;;;7390179;19;20335;-76
2022/06/28 01:35:03;;;;;;;3.47;2.00;;;;;;;;;;7396097;19;20006;-76
2022/06/28 01:37:29;;;;;;;2.88;2.03;;;;;;;;;;7394904;19;20002;-76
2022/06/28 01:39:54;;;;;;;4.50;2.10;;;;;;;;;;7395521;19;20373;-76
2022/06/28 01:42:20;;;;;;;6.38;2.50;;;;;;;;;;7395424;19;20056;-75
2022/06/28 01:44:46;;;;;;;1.83;1.58;;;;;;;;;;7394596;19;20014;-76
2022/06/28 01:47:12;;;;;;;1.73;1.00;;;;;;;;;;7396041;19;19998;-76
2022/06/28 01:49:38;;;;;;;10.88;2.05;;;;;;;;;;7394818;19;20173;-76
2022/06/28 01:52:04;;;;;;;2.35;1.92;;;;;;;;;;7394381;19;20006;-76
2022/06/28 01:54:30;;;;;;;2.15;1.67;;;;;;;;;;7396023;19;20014;-76
2022/06/28 01:56:55;;;;;;;2.75;1.63;;;;;;;;;;7394206;19;20015;-76
2022/06/28 01:59:22;;;;;;;3.22;2.03;;;;;;;;;;7395293;19;20013;-76
2022/06/28 02:01:47;;;;;;;2.92;1.58;;;;;;;;;;7394180;19;20023;-76
2022/06/28 02:04:24;;;;;;;3.05;2.13;;;;;;;;;;7394982;19;20473;-76
2022/06/28 02:06:50;;;;;;;4.10;2.10;;;;;;;;;;7395168;19;20461;-76
2022/06/28 02:09:15;;;;;;;1.80;1.48;;;;;;;;;;7396008;19;20018;-76
2022/06/28 02:11:41;;;;;;;3.50;1.70;;;;;;;;;;7391854;19;20114;-76
2022/06/28 02:14:07;;;;;;;2.88;1.75;;;;;;;;;;7394922;19;20017;-76
2022/06/28 02:16:32;;;;;;;4.55;2.20;;;;;;;;;;7394295;19;20007;-76
2022/06/28 02:18:57;;;;;;;2.70;1.58;;;;;;;;;;7395300;19;20086;-76
2022/06/28 02:21:23;;;;;;;3.53;2.00;;;;;;;;;;7395089;19;20466;-76
2022/06/28 02:23:48;;;;;;;4.20;1.75;;;;;;;;;;7395117;19;20006;-75
2022/06/28 02:26:14;;;;;;;3.08;1.52;;;;;;;;;;7394343;19;20006;-76
2022/06/28 02:28:41;;;;;;;2.10;1.52;;;;;;;;;;7394094;19;20010;-76
2022/06/28 02:31:10;;;;;;;1.95;1.20;;;;;;;;;;7394574;19;20022;-76
2022/06/28 02:33:36;;;;;;;1.40;1.13;;;;;;;;;;7396430;19;20009;-76
2022/06/28 02:41:29;;;;;;;2.28;2.00;;;;;;;;;;7394977;19;20464;-76
2022/06/28 02:43:55;;;;;;;2.55;2.00;;;;;;;;;;7393257;19;20142;-75
2022/06/28 02:46:20;;;;;;;1.77;1.63;;;;;;;;;;7393807;19;20003;-76
2022/06/28 02:48:45;;;;;;;1.67;1.58;;;;;;;;;;7394592;19;20010;-76
2022/06/28 02:51:11;;;;;;;3.20;1.70;;;;;;;;;;7393935;19;20435;-76
2022/06/28 02:53:36;;;;;;;3.22;1.73;;;;;;;;;;7396472;19;20010;-76
2022/06/28 02:56:02;;;;;;;4.47;2.70;;;;;;;;;;7395595;19;20007;-76
2022/06/28 02:58:27;;;;;;;3.28;2.20;;;;;;;;;;7393599;19;20012;-75
2022/06/28 03:00:53;;;;;;;2.42;1.83;;;;;;;;;;7392881;19;20011;-76
2022/06/28 03:03:18;;;;;;;3.60;2.10;;;;;;;;;;7391891;19;20070;-76
2022/06/28 03:05:43;;;;;;;5.45;2.20;;;;;;;;;;7391610;19;20048;-76
2022/06/28 03:08:09;;;;;;;2.80;2.45;;;;;;;;;;7392744;19;20041;-76
2022/06/28 03:10:35;;;;;;;3.08;2.15;;;;;;;;;;7393673;19;20425;-76
2022/06/28 03:13:00;;;;;;;4.78;1.98;;;;;;;;;;7391826;19;20108;-75
2022/06/28 03:15:26;;;;;;;2.88;2.20;;;;;;;;;;7394041;19;20013;-76
2022/06/28 03:17:51;;;;;;;2.90;2.00;;;;;;;;;;7391608;19;20031;-76
2022/06/28 03:20:16;;;;;;;6.95;2.13;;;;;;;;;;7394345;19;20284;-76
2022/06/28 03:22:42;;;;;;;3.03;2.13;;;;;;;;;;7391208;19;20024;-76
2022/06/28 03:25:08;;;;;;;2.80;1.80;;;;;;;;;;7392125;19;19998;-76
2022/06/28 03:27:33;;;;;;;7.47;2.45;;;;;;;;;;7390358;19;20034;-76
2022/06/28 03:29:58;;;;;;;3.75;1.60;;;;;;;;;;7394335;19;20033;-76
2022/06/28 03:32:24;;;;;;;3.45;2.10;;;;;;;;;;7385734;19;20006;-77
2022/06/28 03:34:49;;;;;;;1.92;1.73;;;;;;;;;;7387332;19;20034;-77
2022/06/28 03:37:15;;;;;;;2.28;1.60;;;;;;;;;;7388695;19;20015;-77
2022/06/28 03:39:41;;;;;;;6.13;2.15;;;;;;;;;;7392792;19;20346;-77
2022/06/28 03:42:07;;;;;;;3.50;1.70;;;;;;;;;;7393116;19;20070;-77
2022/06/28 03:44:32;;;;;;;2.85;1.83;;;;;;;;;;7391489;19;20469;-78
2022/06/28 03:46:57;;;;;;;5.07;1.90;;;;;;;;;;7393079;19;20023;-76
2022/06/28 03:49:23;;;;;;;2.20;1.95;;;;;;;;;;7391336;19;20446;-77
2022/06/28 03:51:48;;;;;;;7.32;2.00;;;;;;;;;;7391341;19;20010;-77
2022/06/28 03:54:13;;;;;;;4.68;1.92;;;;;;;;;;7385844;19;20454;-77
2022/06/28 03:56:39;;;;;;;5.68;1.95;;;;;;;;;;7391351;19;20070;-77
2022/06/28 03:59:04;;;;;;;2.05;1.85;;;;;;;;;;7389204;19;20490;-77
2022/06/28 04:01:29;;;;;;;3.67;2.30;;;;;;;;;;7392710;19;20023;-77
2022/06/28 04:03:55;;;;;;;4.07;2.00;;;;;;;;;;7388533;19;20019;-77
2022/06/28 04:06:20;;;;;;;4.40;1.77;;;;;;;;;;7390591;19;20014;-77
2022/06/28 04:08:45;;;;;;;2.70;1.88;;;;;;;;;;7386052;19;20007;-77
2022/06/28 04:11:14;;;;;;;2.67;1.92;;;;;;;;;;7391391;19;20002;-77
2022/06/28 04:13:45;;;;;;;2.67;1.98;;;;;;;;;;7389104;19;20010;-78
2022/06/28 04:16:10;;;;;;;3.53;2.00;;;;;;;;;;7391860;19;20007;-77
2022/06/28 04:18:36;;;;;;;4.82;2.47;;;;;;;;;;7390118;19;20010;-76
2022/06/28 04:21:02;;;;;;;2.50;2.13;;;;;;;;;;7390677;19;20473;-77
2022/06/28 04:23:27;;;;;;;2.50;1.98;;;;;;;;;;7388258;19;20022;-76
2022/06/28 04:25:53;;;;;;;6.68;2.47;;;;;;;;;;7388743;19;20010;-77
2022/06/28 04:28:18;;;;;;;3.17;2.30;;;;;;;;;;7392524;19;20062;-76
2022/06/28 04:30:44;;;;;;;4.10;2.47;;;;;;;;;;7390787;19;20019;-77
2022/06/28 04:33:09;;;;;;;2.30;2.00;;;;;;;;;;7392711;19;20002;-77
2022/06/28 04:35:34;;;;;;;3.45;2.50;;;;;;;;;;7389204;19;20322;-76
2022/06/28 04:38:01;;;;;;;3.38;2.13;;;;;;;;;;7389248;19;20352;-76
2022/06/28 04:40:27;;;;;;;6.68;2.40;;;;;;;;;;7390476;19;20018;-76
2022/06/28 04:42:52;;;;;;;3.67;2.30;;;;;;;;;;7393452;19;20002;-77
2022/06/28 04:45:17;;;;;;;2.80;2.20;;;;;;;;;;7386420;19;20017;-76
2022/06/28 04:47:43;;;;;;;4.20;2.22;;;;;;;;;;7387534;19;20007;-77
2022/06/28 04:50:09;;;;;;;4.25;2.50;;;;;;;;;;7389377;19;20051;-76
2022/06/28 04:52:36;;;;;;;3.65;2.38;;;;;;;;;;7389420;19;20089;-77
2022/06/28 04:55:02;;;;;;;3.45;2.33;;;;;;;;;;7390019;19;20014;-77
2022/06/28 04:57:27;;;;;;;3.78;2.13;;;;;;;;;;7390309;19;20003;-76
2022/06/28 04:59:53;;;;;;;5.53;2.60;;;;;;;;;;7390971;19;20006;-77
2022/06/28 05:02:18;;;;;;;4.72;2.45;;;;;;;;;;7388184;19;20044;-77
2022/06/28 05:04:43;;;;;;;2.88;2.03;;;;;;;;;;7384600;19;20532;-76
2022/06/28 05:07:09;;;;;;;5.60;2.33;;;;;;;;;;7400349;19;20365;-76
2022/06/28 05:09:34;;;;;;;4.18;2.70;;;;;;;;;;7405430;19;20374;-77
2022/06/28 05:11:59;;;;;;;2.97;2.25;;;;;;;;;;7406383;19;20514;-77
2022/06/28 05:14:24;;;;;;;3.67;2.55;;;;;;;;;;7400408;19;20035;-75
2022/06/28 05:16:50;;;;;;;5.72;2.38;;;;;;;;;;7362958;19;20376;-75
2022/06/28 05:19:15;;;;;;;6.22;2.50;;;;;;;;;;7401419;19;20513;-75
2022/06/28 05:21:40;;;;;;;2.53;2.10;;;;;;;;;;7402405;19;20017;-75
2022/06/28 05:24:06;;;;;;;3.58;2.50;;;;;;;;;;7402336;19;20006;-75
2022/06/28 05:26:31;;;;;;;2.63;2.38;;;;;;;;;;7403028;19;20357;-77
2022/06/28 05:28:57;;;;;;;3.33;2.60;;;;;;;;;;7404787;19;20021;-77
2022/06/28 05:31:22;;;;;;;2.60;2.20;;;;;;;;;;7402450;19;20031;-76
2022/06/28 05:33:47;;;;;;;2.88;2.25;;;;;;;;;;7401449;19;20044;-76
2022/06/28 05:36:13;;;;;;;2.22;2.00;;;;;;;;;;7402382;19;20065;-77
2022/06/28 05:38:38;;;;;;;2.55;2.08;;;;;;;;;;7402494;19;20027;-76
2022/06/28 05:41:03;;;;;;;2.33;1.92;;;;;;;;;;7400281;19;20007;-76
2022/06/28 05:43:29;;;;;;;2.83;1.98;;;;;;;;;;7397683;19;20393;-76
2022/06/28 05:45:54;;;;;;;3.55;2.08;;;;;;;;;;7404155;19;20070;-77
2022/06/28 05:48:19;;;;;;;2.17;1.95;;;;;;;;;;7403146;19;20010;-76
2022/06/28 05:50:45;;;;;;;3.13;1.85;;;;;;;;;;7404174;19;20010;-76
2022/06/28 05:53:10;;;;;;;3.83;2.10;;;;;;;;;;7403134;19;20469;-76
2022/06/28 05:55:36;;;;;;;3.08;2.00;;;;;;;;;;7402292;19;20606;-76
2022/06/28 05:58:01;;;;;;;2.08;1.45;;;;;;;;;;7399688;19;20003;-77
2022/06/28 06:00:26;;;;;;;1.83;1.73;;;;;;;;;;7403624;19;20007;-76
2022/06/28 06:02:52;;;;;;;2.30;1.67;;;;;;;;;;7402825;19;20078;-76
2022/06/28 06:05:17;;;;;;;2.28;1.80;;;;;;;;;;7397124;19;20014;-76
2022/06/28 06:07:42;;;;;;;2.30;1.50;;;;;;;;;;7402854;19;20484;-76
2022/06/28 06:10:08;;;;;;;2.75;1.90;;;;;;;;;;7399521;19;20013;-76
2022/06/28 06:12:34;;;;;;;2.00;1.38;;;;;;;;;;7400266;19;20006;-76
2022/06/28 06:14:59;;;;;;;5.35;2.13;;;;;;;;;;7401438;19;20350;-76
2022/06/28 06:17:24;;;;;;;4.47;2.15;;;;;;;;;;7401816;19;20010;-76
2022/06/28 06:19:50;;;;;;;2.17;1.83;;;;;;;;;;7389705;19;20078;-77
2022/06/28 06:22:15;;;;;;;3.00;1.80;;;;;;;;;;7393919;19;20013;-76
2022/06/28 06:24:40;;;;;;;3.13;1.83;;;;;;;;;;7391153;19;20018;-76
2022/06/28 06:27:06;;;;;;;2.25;1.55;;;;;;;;;;7397416;19;19999;-76
2022/06/28 06:29:31;;;;;;;2.65;1.65;;;;;;;;;;7392848;19;19995;-76
2022/06/28 06:31:57;;;;;;;2.63;1.90;;;;;;;;;;7396277;19;20011;-76
2022/06/28 06:34:23;;;;;;;5.38;1.95;;;;;;;;;;7392608;19;20465;-76
2022/06/28 06:36:48;;;;;;;4.07;1.95;;;;;;;;;;7391886;19;20003;-76
2022/06/28 06:39:14;;;;;;;3.55;1.85;;;;;;;;;;7393646;19;19999;-76
2022/06/28 06:41:40;;;;;;;2.80;1.83;;;;;;;;;;7395662;19;20006;-76
2022/06/28 06:44:05;;;;;;;3.90;2.10;;;;;;;;;;7388210;19;20327;-76
2022/06/28 06:46:31;;;;;;;1.70;1.60;;;;;;;;;;7393052;19;20017;-76
2022/06/28 06:48:56;;;;;;;2.35;1.90;;;;;;;;;;7392926;19;20045;-76
2022/06/28 06:51:22;;;;;;;1.77;1.60;;;;;;;;;;7395720;19;20018;-76
2022/06/28 06:53:47;;;;;;;2.35;1.70;;;;;;;;;;7391299;19;20037;-76
2022/06/28 06:56:12;;;;;;;1.95;1.48;;;;;;;;;;7393848;19;19998;-76
2022/06/28 06:58:38;;;;;;;1.95;1.50;;;;;;;;;;7389209;19;20432;-76
2022/06/28 07:01:04;;;;;;;2.80;1.60;;;;;;;;;;7395066;19;20001;-76
2022/06/28 07:03:29;;;;;;;1.73;1.20;;;;;;;;;;7393479;19;20002;-76
2022/06/28 07:05:54;;;;;;;1.67;1.45;;;;;;;;;;7390965;19;20009;-76
2022/06/28 07:08:20;;;;;;;2.63;1.30;;;;;;;;;;7395208;19;20067;-75
2022/06/28 07:10:46;;;;;;;1.10;1.00;;;;;;;;;;7395024;19;20015;-76
2022/06/28 07:13:11;;;;;;;2.45;1.58;;;;;;;;;;7393919;19;20014;-76
2022/06/28 07:15:36;;;;;;;2.20;1.60;;;;;;;;;;7392170;19;20114;-76
2022/06/28 07:18:04;;;;;;;4.93;1.88;;;;;;;;;;7388311;19;20105;-75
2022/06/28 07:20:29;;;;;;;3.50;1.65;;;;;;;;;;7394983;19;20010;-75
2022/06/28 07:22:54;;;;;;;2.33;1.40;;;;;;;;;;7395818;19;20426;-75
2022/06/28 07:25:20;;;;;;;1.45;1.35;;;;;;;;;;7396826;19;19999;-75
2022/06/28 07:27:45;;;;;;;2.17;1.73;;;;;;;;;;7392472;19;20065;-75
2022/06/28 07:30:11;;;;;;;1.38;1.27;;;;;;;;;;7392988;19;20031;-75
2022/06/28 07:32:37;;;;;;;1.02;1.02;;;;;;;;;;7392881;19;20014;-75
2022/06/28 07:35:03;;;;;;;1.88;1.20;;;;;;;;;;7388954;19;20354;-76
2022/06/28 07:37:29;;;;;;;2.58;1.42;;;;;;;;;;7396811;19;20086;-75
2022/06/28 07:39:54;;;;;;;2.65;1.20;;;;;;;;;;7391373;19;20031;-75
2022/06/28 07:42:19;;;;;;;2.28;1.40;;;;;;;;;;7394460;19;20006;-76
2022/06/28 07:44:45;;;;;;;1.70;1.15;;;;;;;;;;7389627;19;20003;-75
2022/06/28 07:47:10;;;;;;;4.55;1.27;;;;;;;;;;7391009;19;20003;-76
2022/06/28 07:52:35;;;;;;;2.38;1.20;;;;;;;;;;7393978;19;20040;-76
2022/06/28 07:55:01;;;;;;;2.75;1.30;;;;;;;;;;7392211;19;20086;-76
2022/06/28 07:57:27;;;;;;;1.30;1.20;;;;;;;;;;7393791;19;19995;-76
2022/06/28 07:59:53;;;;;;;1.75;1.40;;;;;;;;;;7393370;19;20021;-76
2022/06/28 08:02:18;;;;;;;1.30;1.20;;;;;;;;;;7394005;19;20031;-75
2022/06/28 08:04:44;;;;;;;3.67;1.08;;;;;;;;;;7390748;19;20346;-75
2022/06/28 08:07:09;;;;;;;3.08;1.50;;;;;;;;;;7391593;19;20007;-75
2022/06/28 08:09:34;;;;;;;1.35;0.95;;;;;;;;;;7392587;19;20081;-75
2022/06/28 08:12:00;;;;;;;1.90;1.10;;;;;;;;;;7393293;19;19999;-76
2022/06/28 08:14:26;;;;;;;2.70;1.20;;;;;;;;;;7391122;19;20048;-76
2022/06/28 08:16:52;;;;;;;1.55;1.13;;;;;;;;;;7391052;19;20031;-75
2022/06/28 08:19:19;;;;;;;1.38;1.17;;;;;;;;;;7390402;19;20030;-76
2022/06/28 08:21:45;;;;;;;3.30;1.25;;;;;;;;;;7394780;19;20073;-77
2022/06/28 08:24:10;;;;;;;2.03;1.30;;;;;;;;;;7387798;19;20026;-76
2022/06/28 08:26:42;;;;;;;2.35;1.40;;;;;;;;;;7383896;19;20042;-75
2022/06/28 08:29:07;;;;;;;1.35;1.25;;;;;;;;;;7387051;19;20027;-75
2022/06/28 08:31:33;;;;;;;1.90;1.25;;;;;;;;;;7391855;19;20010;-76
2022/06/28 08:33:58;;;;;;;1.50;1.23;;;;;;;;;;7389282;19;20548;-75
2022/06/28 08:36:23;;;;;;;1.20;1.10;;;;;;;;;;7387146;19;20006;-75
2022/06/28 08:38:49;;;;;;;2.08;1.20;;;;;;;;;;7391440;19;20009;-75
2022/06/28 08:41:14;;;;;;;2.05;1.30;;;;;;;;;;7389916;19;20073;-75
2022/06/28 08:43:39;;;;;;;1.90;1.02;;;;;;;;;;7392794;19;20339;-75
2022/06/28 08:46:05;;;;;;;5.57;1.20;;;;;;;;;;7389893;19;20010;-76
2022/06/28 08:48:38;;;;;;;2.90;1.33;;;;;;;;;;7392247;19;20009;-76
2022/06/28 08:51:07;;;;;;;1.10;1.00;;;;;;;;;;7392714;19;20013;-76
2022/06/28 08:53:33;;;;;;;2.42;1.00;;;;;;;;;;7388488;19;20013;-75
2022/06/28 08:55:59;;;;;;;1.00;0.95;;;;;;;;;;7391166;19;20010;-76
2022/06/28 08:58:26;;;;;;;1.98;0.80;;;;;;;;;;7393425;19;20009;-75
2022/06/28 09:00:51;;;;;;;1.50;0.90;;;;;;;;;;7389858;19;20007;-76
2022/06/28 09:03:18;;;;;;;2.10;1.08;;;;;;;;;;7388858;19;20006;-76
2022/06/28 09:05:44;;;;;;;3.00;1.02;;;;;;;;;;7386903;19;20018;-76
2022/06/28 09:08:09;;;;;;;0.95;0.80;;;;;;;;;;7390850;19;20007;-76
2022/06/28 09:10:34;;;;;;;1.00;0.88;;;;;;;;;;7391769;19;20007;-76
2022/06/28 09:13:14;;;;;;;1.98;1.00;;;;;;;;;;7390630;19;20014;-76
2022/06/28 09:15:56;;;;;;;1.50;0.90;;;;;;;;;;7387665;19;20011;-76
2022/06/28 09:18:42;;;;;;;1.10;1.00;;;;;;;;;;7393023;19;20074;-76
2022/06/28 09:21:09;;;;;;;;;;;;;;;;;;7390312;19;20001;-76
2022/06/28 09:23:37;;;;;;;1.42;0.90;;;;;;;;;;7391107;19;19911;-76
2022/06/28 09:26:11;;;;;;;0.68;0.65;;;;;;;;;;7389567;19;20014;-76
2022/06/28 09:28:46;;;;;;;1.37;1.20;;;;;;;;;;7391736;19;20003;-76
2022/06/28 09:31:13;;;;;;;;;;;;;;;;;;7388751;19;20239;-76
2022/06/28 09:33:39;;;;;;;0.68;0.68;;;;;;;;;;7386900;19;19915;-76
2022/06/28 09:36:05;;;;;;;2.53;0.80;;;;;;;;;;7388525;19;20006;-76
2022/06/28 09:38:32;;;;;;;1.20;0.80;;;;;;;;;;7390518;19;20015;-76
2022/06/28 09:41:00;;;;;;;1.05;1.00;;;;;;;;;;7392654;19;20015;-76
2022/06/28 09:43:34;;;;;;;1.52;1.27;;;;;;;;;;7389131;19;20008;-76
2022/06/28 09:46:04;;;;;;;1.15;0.90;;;;;;;;;;7389288;19;20359;-76
2022/06/28 09:48:36;;;;;;;0.73;0.73;;;;;;;;;;7391867;19;20385;-76
2022/06/28 09:51:01;;;;;;;17.17;3.28;;;;;;;;;;7387163;19;19999;-76
2022/06/28 09:53:29;;;;;;;3.05;1.00;;;;;;;;;;7390350;19;19999;-76
2022/06/28 09:56:00;;;;;;;1.10;0.90;;;;;;;;;;7394511;19;20021;-76
2022/06/28 09:58:26;;;;;;;1.42;1.00;;;;;;;;;;7395884;19;20066;-76
2022/06/28 10:00:51;;;;;;;1.08;0.98;;;;;;;;;;7394793;19;20010;-77
2022/06/28 10:03:17;;;;;;;2.28;1.00;;;;;;;;;;7396821;19;20384;-76
2022/06/28 10:05:43;;;;;;;2.20;1.20;;;;;;;;;;7390801;19;20035;-76
2022/06/28 10:08:09;;;;;;;0.80;0.73;;;;;;;;;;7394005;19;20006;-76
2022/06/28 10:10:37;;;;;;;1.20;1.10;;;;;;;;;;7398613;19;20014;-76
2022/06/28 10:16:07;;;;;;;1.25;0.95;;;;;;;;;;7395395;19;20018;-76
2022/06/28 10:18:33;;;;;;;1.15;1.10;;;;;;;;;;7392279;19;20049;-76
2022/06/28 10:21:00;;;;;;;1.75;1.25;;;;;;;;;;7396326;19;20361;-76
2022/06/28 10:23:37;;;;;;;2.05;1.17;;;;;;;;;;7392068;19;20010;-76
2022/06/28 10:26:15;;;;;;;1.33;1.00;;;;;;;;;;7395884;19;20015;-76
2022/06/28 10:28:44;;;;;;;1.17;1.10;;;;;;;;;;7396467;19;20086;-77
2022/06/28 10:31:22;;;;;;;1.55;1.00;;;;;;;;;;7396388;19;20362;-77
2022/06/28 10:33:54;;;;;;;1.42;1.33;;;;;;;;;;7395409;19;20338;-77
2022/06/28 10:36:22;;;;;;;1.17;1.08;;;;;;;;;;7388281;19;20080;-77
2022/06/28 10:39:06;;;;;;;1.42;1.08;;;;;;;;;;7395140;19;20480;-77
2022/06/28 10:41:47;;;;;;;1.63;1.30;;;;;;;;;;7393805;19;20061;-77
2022/06/28 10:44:20;;;;;;;1.30;0.98;;;;;;;;;;7396116;19;20461;-77
2022/06/28 10:46:51;;;;;;;1.00;1.00;;;;;;;;;;7393367;19;20496;-77
2022/06/28 10:49:16;;;;;;;1.25;1.08;;;;;;;;;;7395688;19;20375;-77
2022/06/28 10:52:10;;;;;;;1.48;1.15;;;;;;;;;;7393518;19;20010;-77
2022/06/28 10:54:40;;;;;;;1.27;1.05;;;;;;;;;;7394949;19;20323;-76
2022/06/28 10:57:28;;;;;;;1.20;1.10;;;;;;;;;;7394342;19;20020;-76
2022/06/28 10:59:57;;;;;;;1.33;1.23;;;;;;;;;;7388964;19;20006;-77
2022/06/28 11:02:23;;;;;;;1.35;1.23;;;;;;;;;;7392057;19;20434;-77
2022/06/28 11:05:09;;;;;;;3.90;1.02;;;;;;;;;;7392464;19;20378;-77
2022/06/28 11:07:35;;;;;;;;;;;;;;;;;;7394972;19;20023;-77
2022/06/28 11:10:00;;;;;;;1.15;1.15;;;;;;;;;;7396263;19;19919;-76
2022/06/28 11:12:29;;;;;;;4.80;1.40;;;;;;;;;;7394452;19;20125;-76
2022/06/28 11:14:56;;;;;;;3.00;1.40;;;;;;;;;;7391176;19;20014;-77
2022/06/28 11:17:23;;;;;;;1.50;1.20;;;;;;;;;;7395216;19;20533;-77
2022/06/28 11:19:53;;;;;;;2.30;1.20;;;;;;;;;;7394379;19;20018;-78
2022/06/28 11:22:25;;;;;;;1.23;1.13;;;;;;;;;;7395750;19;20442;-78
2022/06/28 11:24:51;;;;;;;5.50;1.85;;;;;;;;;;7393504;19;20027;-78
2022/06/28 11:27:22;;;;;;;2.53;1.15;;;;;;;;;;7395998;19;20086;-76
2022/06/28 11:29:53;;;;;;;1.92;1.20;;;;;;;;;;7393946;19;20007;-76
2022/06/28 11:32:27;;;;;;;1.38;1.27;;;;;;;;;;7395054;19;20010;-77
2022/06/28 11:34:56;;;;;;;1.30;1.23;;;;;;;;;;7390215;19;20048;-78
2022/06/28 11:37:22;;;;;;;1.40;1.30;;;;;;;;;;7395863;19;20007;-78
2022/06/28 11:39:50;;;;;;;1.27;1.17;;;;;;;;;;7396626;19;20031;-78
2022/06/28 11:42:15;;;;;;;1.45;1.27;;;;;;;;;;7396839;19;20034;-78
2022/06/28 11:44:41;;;;;;;5.05;1.20;;;;;;;;;;7394185;19;20058;-78
2022/06/28 11:47:08;;;;;;;1.20;1.10;;;;;;;;;;7395302;19;20014;-79
2022/06/28 11:49:34;;;;;;;1.10;1.10;;;;;;;;;;7393486;19;20010;-77
2022/06/28 11:51:59;;;;;;;1.08;1.08;;;;;;;;;;7392433;19;20013;-77
2022/06/28 11:54:25;;;;;;;2.42;1.20;;;;;;;;;;7393157;19;20070;-77
2022/06/28 11:56:53;;;;;;;1.50;1.02;;;;;;;;;;7393753;19;20070;-76
2022/06/28 11:59:19;;;;;;;1.30;1.00;;;;;;;;;;7391314;19;20011;-77
2022/06/28 12:01:44;;;;;;;1.10;1.00;;;;;;;;;;7392710;19;20107;-76
2022/06/28 12:04:10;;;;;;;3.45;1.27;;;;;;;;;;7391918;19;20121;-76
2022/06/28 12:06:40;;;;;;;1.08;1.05;;;;;;;;;;7391819;19;20010;-76
2022/06/28 12:09:09;;;;;;;0.85;0.85;;;;;;;;;;7394450;19;20104;-77
2022/06/28 12:11:47;;;;;;;1.33;1.20;;;;;;;;;;7389106;19;20007;-76
2022/06/28 12:14:18;;;;;;;1.00;1.00;;;;;;;;;;7388063;19;20197;-76
2022/06/28 12:16:45;;;;;;;1.67;1.13;;;;;;;;;;7391233;19;20047;-77
2022/06/28 12:19:19;;;;;;;1.08;0.90;;;;;;;;;;7387100;19;20010;-76
2022/06/28 12:22:08;;;;;;;3.35;1.15;;;;;;;;;;7391319;19;20014;-76
2022/06/28 12:24:43;;;;;;;0.95;0.95;;;;;;;;;;7388782;19;20066;-76
2022/06/28 12:27:11;;;;;;;1.45;1.05;;;;;;;;;;7390570;19;20024;-76
2022/06/28 12:29:37;;;;;;;1.33;0.80;;;;;;;;;;7391550;19;20039;-76
2022/06/28 12:32:03;;;;;;;2.25;1.10;;;;;;;;;;7392989;19;20011;-76
2022/06/28 12:34:29;;;;;;;2.45;0.90;;;;;;;;;;7387550;19;20014;-76
2022/06/28 12:36:55;;;;;;;1.02;0.80;;;;;;;;;;7391978;19;20009;-76
2022/06/28 12:39:20;;;;;;;1.42;0.88;;;;;;;;;;7389491;19;20015;-76
2022/06/28 12:41:48;;;;;;;4.00;1.00;;;;;;;;;;7389808;19;20066;-76
2022/06/28 12:44:14;;;;;;;1.20;1.10;;;;;;;;;;7389796;19;20043;-76
2022/06/28 12:46:39;;;;;;;0.90;0.90;;;;;;;;;;7389983;19;20007;-76
2022/06/28 12:49:04;;;;;;;1.13;0.98;;;;;;;;;;7385852;19;20018;-76
2022/06/28 12:51:29;;;;;;;1.27;0.80;;;;;;;;;;7390043;19;20015;-76
2022/06/28 12:53:55;;;;;;;1.00;1.00;;;;;;;;;;7392848;19;20033;-76
2022/06/28 12:56:20;;;;;;;1.00;0.90;;;;;;;;;;7390025;19;20010;-76
2022/06/28 12:58:47;;;;;;;0.65;0.65;;;;;;;;;;7391795;19;19995;-76
2022/06/28 13:01:13;;;;;;;1.00;0.80;;;;;;;;;;7388085;19;20032;-76
2022/06/28 13:03:39;;;;;;;1.33;1.05;;;;;;;;;;7390032;19;20517;-76
2022/06/28 13:06:06;;;;;;;3.90;1.05;;;;;;;;;;7391825;19;20019;-76
2022/06/28 13:08:32;;;;;;;0.95;0.90;;;;;;;;;;7390716;19;20012;-76
2022/06/28 13:10:57;;;;;;;1.30;0.90;;;;;;;;;;7386002;19;20417;-77
2022/06/28 13:13:22;;;;;;;1.92;1.13;;;;;;;;;;7390656;19;20006;-76
2022/06/28 13:15:48;;;;;;;1.50;0.90;;;;;;;;;;7388996;19;20014;-76
2022/06/28 13:18:14;;;;;;;2.92;0.98;;;;;;;;;;7391211;19;20426;-75
2022/06/28 13:20:39;;;;;;;1.48;1.10;;;;;;;;;;7388448;19;20014;-75
2022/06/28 13:23:05;;;;;;;1.77;1.05;;;;;;;;;;7390675;19;20030;-75
2022/06/28 13:25:30;;;;;;;2.17;1.05;;;;;;;;;;7385689;19;20478;-76
2022/06/28 13:27:55;;;;;;;1.23;1.05;;;;;;;;;;7395995;19;20142;-75
2022/06/28 13:30:21;;;;;;;1.27;1.17;;;;;;;;;;7397863;19;20013;-75
2022/06/28 13:32:46;;;;;;;1.15;1.05;;;;;;;;;;7399261;19;20070;-76
2022/06/28 13:35:12;;;;;;;1.90;1.13;;;;;;;;;;7393982;19;20012;-75
2022/06/28 13:37:37;;;;;;;1.20;1.10;;;;;;;;;;7399231;19;20478;-76
2022/06/28 13:40:03;;;;;;;1.75;0.95;;;;;;;;;;7396871;19;20022;-75
2022/06/28 13:42:29;;;;;;;1.63;1.02;;;;;;;;;;7395995;19;20054;-75
2022/06/28 13:44:54;;;;;;;1.42;0.80;;;;;;;;;;7394018;19;20418;-75
2022/06/28 13:47:19;;;;;;;1.08;0.80;;;;;;;;;;7399260;19;20006;-76
2022/06/28 13:49:44;;;;;;;1.02;0.90;;;;;;;;;;7395751;19;20498;-78
2022/06/28 13:52:10;;;;;;;5.03;1.00;;;;;;;;;;7397412;19;20002;-77
2022/06/28 13:54:36;;;;;;;1.15;1.05;;;;;;;;;;7396496;19;19994;-77
2022/06/28 13:57:01;;;;;;;1.30;1.02;;;;;;;;;;7397291;19;20015;-77
2022/06/28 13:59:26;;;;;;;1.20;0.95;;;;;;;;;;7395168;19;20016;-77
2022/06/28 14:01:52;;;;;;;1.42;1.10;;;;;;;;;;7397775;19;20473;-76
2022/06/28 14:04:17;;;;;;;1.10;1.00;;;;;;;;;;7395856;19;20517;-76
2022/06/28 14:06:43;;;;;;;2.10;1.00;;;;;;;;;;7399336;19;20010;-77
2022/06/28 14:09:09;;;;;;;0.95;0.95;;;;;;;;;;7398760;19;19999;-76
2022/06/28 14:11:34;;;;;;;2.30;0.82;;;;;;;;;;7397736;19;20069;-76
2022/06/28 14:14:00;;;;;;;1.25;0.90;;;;;;;;;;7396827;19;20002;-76
2022/06/28 14:16:25;;;;;;;1.08;0.90;;;;;;;;;;7396584;19;20006;-77
2022/06/28 14:18:51;;;;;;;6.63;1.25;;;;;;;;;;7397475;19;19998;-76
2022/06/28 14:21:16;;;;;;;1.27;0.90;;;;;;;;;;7398457;19;20291;-77
2022/06/28 14:23:42;;;;;;;1.00;0.90;;;;;;;;;;7396682;19;20478;-75
2022/06/28 14:26:07;;;;;;;4.03;1.00;;;;;;;;;;7398897;19;20006;-75
2022/06/28 14:28:32;;;;;;;1.23;1.10;;;;;;;;;;7395713;19;20095;-75
2022/06/28 14:30:58;;;;;;;1.23;0.90;;;;;;;;;;7395508;19;20007;-75
2022/06/28 14:33:23;;;;;;;1.02;0.77;;;;;;;;;;7396783;19;20031;-75
2022/06/28 14:35:49;;;;;;;0.85;0.85;;;;;;;;;;7393290;19;20010;-75
2022/06/28 14:38:24;;;;;;;2.05;0.90;;;;;;;;;;7394608;19;20013;-75
2022/06/28 14:40:51;;;;;;;3.08;1.02;;;;;;;;;;7398610;19;20007;-75
2022/06/28 14:43:17;;;;;;;1.73;0.90;;;;;;;;;;7396630;19;20021;-75
2022/06/28 14:45:43;;;;;;;0.82;0.82;;;;;;;;;;7393958;19;20378;-75
2022/06/28 14:48:09;;;;;;;1.00;0.73;;;;;;;;;;7390200;19;20021;-75
2022/06/28 14:50:36;;;;;;;1.70;0.90;;;;;;;;;;7390225;19;20016;-75
2022/06/28 14:53:02;;;;;;;0.75;0.75;;;;;;;;;;7395319;19;20007;-74
2022/06/28 14:55:28;;;;;;;0.90;0.90;;;;;;;;;;7387612;19;20118;-76